Time;durP1;ratioP1;P1;durP2;ratioP2;P2;SDS_P1;SDS_P2;PMS_P1;PMS_P2;Temp;Humidity;BMP_temperature;BMP_pressure;BME280_temperature;BME280_humidity;BME280_pressure;Samples;Min_cycle;Max_cycle;Signal;HPM_P1;HPM_P2
2023/10/20 00:01:42;;;;;;;2.90;2.70;;;;;;;12.54;100.00;99003.88;5111490;28;20198;-65
2023/10/20 00:04:08;;;;;;;4.60;3.97;;;;;;;12.50;100.00;99018.59;5110896;28;20508;-65
2023/10/20 00:06:38;;;;;;;5.20;4.13;;;;;;;12.41;100.00;99007.88;5110148;27;20202;-65
2023/10/20 00:09:08;;;;;;;3.90;3.70;;;;;;;12.46;100.00;99026.53;5091063;28;20731;-65
2023/10/20 00:11:36;;;;;;;2.87;2.37;;;;;;;12.44;100.00;99021.44;5090927;28;20198;-65
2023/10/20 00:14:03;;;;;;;4.57;3.67;;;;;;;12.44;100.00;99020.63;5091171;28;20229;-65
2023/10/20 00:16:30;;;;;;;4.30;4.10;;;;;;;12.43;100.00;99017.22;5090618;28;20939;-65
2023/10/20 00:18:57;;;;;;;3.50;3.27;;;;;;;12.45;100.00;99017.16;5092774;28;20196;-65
2023/10/20 00:21:24;;;;;;;3.63;3.23;;;;;;;12.43;100.00;99024.94;5110907;28;20230;-65
2023/10/20 00:23:51;;;;;;;4.00;3.80;;;;;;;12.38;100.00;99016.56;5110880;28;20725;-65
2023/10/20 00:26:20;;;;;;;4.97;4.57;;;;;;;12.37;100.00;99019.22;5110887;28;20203;-65
2023/10/20 00:28:46;;;;;;;8.13;3.27;;;;;;;12.32;100.00;99014.28;5111069;28;20594;-65
2023/10/20 00:31:13;;;;;;;5.63;3.63;;;;;;;12.29;100.00;99019.53;5111229;28;20625;-65
2023/10/20 00:33:40;;;;;;;3.27;3.17;;;;;;;12.30;100.00;99015.25;5111035;28;20681;-66
2023/10/20 00:36:08;;;;;;;2.90;2.70;;;;;;;12.30;100.00;99010.09;5111038;28;20225;-65
2023/10/20 00:38:34;;;;;;;3.60;3.40;;;;;;;12.27;100.00;99005.09;5110207;27;20724;-65
2023/10/20 00:41:01;;;;;;;3.37;2.93;;;;;;;12.26;100.00;99000.84;5092207;27;20583;-65
2023/10/20 00:43:39;;;;;;;3.77;3.57;;;;;;;12.21;100.00;99006.22;5092284;28;20737;-65
2023/10/20 00:46:07;;;;;;;2.87;2.67;;;;;;;12.02;100.00;98977.03;5090351;28;20218;-65
2023/10/20 00:48:36;;;;;;;2.40;2.30;;;;;;;12.13;100.00;98999.72;5097641;27;20675;-65
2023/10/20 00:51:05;;;;;;;4.17;3.60;;;;;;;12.09;100.00;99001.56;5098458;27;20667;-65
2023/10/20 00:53:34;;;;;;;3.70;3.37;;;;;;;12.04;100.00;98995.81;5091817;28;20218;-65
2023/10/20 00:56:03;;;;;;;4.30;3.50;;;;;;;12.03;100.00;98994.97;5110711;28;20226;-65
2023/10/20 00:58:30;;;;;;;4.00;3.80;;;;;;;11.89;100.00;98963.06;5105585;28;20615;-65
2023/10/20 01:00:58;;;;;;;3.47;3.17;;;;;;;11.98;100.00;98988.38;5090793;28;20192;-65
2023/10/20 01:03:25;;;;;;;5.20;3.40;;;;;;;11.96;100.00;98974.72;5106116;28;20206;-65
2023/10/20 01:05:52;;;;;;;3.57;3.37;;;;;;;12.00;100.00;98996.84;5110669;28;20195;-65
2023/10/20 01:08:19;;;;;;;4.20;3.47;;;;;;;11.98;100.00;98984.06;5109751;28;20662;-65
2023/10/20 01:10:46;;;;;;;3.80;3.50;;;;;;;11.99;100.00;98984.88;5105338;28;20693;-65
2023/10/20 01:13:13;;;;;;;4.73;3.27;;;;;;;11.96;100.00;98990.13;5091930;28;20294;-65
2023/10/20 01:15:41;;;;;;;3.83;2.83;;;;;;;11.93;100.00;98985.97;5090218;28;20191;-65
2023/10/20 01:18:10;;;;;;;4.90;3.47;;;;;;;11.94;100.00;98985.09;5090421;28;20556;-65
2023/10/20 01:20:38;;;;;;;3.40;3.20;;;;;;;11.95;100.00;98994.47;5097042;28;20223;-65
2023/10/20 01:23:05;;;;;;;4.17;3.80;;;;;;;11.94;100.00;98997.09;5095074;27;20211;-65
2023/10/20 01:25:33;;;;;;;3.60;3.30;;;;;;;11.93;100.00;98985.97;5112935;28;20210;-65
2023/10/20 01:28:00;;;;;;;3.03;2.83;;;;;;;11.92;100.00;98988.63;5115000;27;20709;-65
2023/10/20 01:30:26;;;;;;;3.80;3.50;;;;;;;11.87;100.00;98980.25;5114590;28;20195;-65
2023/10/20 01:32:53;;;;;;;3.73;3.50;;;;;;;11.86;100.00;98970.88;5114750;28;20194;-65
2023/10/20 01:35:20;;;;;;;3.80;3.47;;;;;;;11.89;100.00;98968.22;5106008;28;20195;-65
2023/10/20 01:37:47;;;;;;;4.30;3.40;;;;;;;11.90;100.00;98980.13;5110431;28;20198;-65
2023/10/20 01:40:14;;;;;;;2.90;2.80;;;;;;;11.73;100.00;98965.44;5098733;27;20204;-65
2023/10/20 01:42:42;;;;;;;2.20;2.10;;;;;;;11.82;100.00;98979.63;5093939;28;20264;-65
2023/10/20 01:45:10;;;;;;;5.10;3.27;;;;;;;11.80;100.00;98996.81;5095461;27;20268;-65
2023/10/20 01:47:37;;;;;;;3.83;3.50;;;;;;;11.79;100.00;98995.16;5093784;28;20235;-65
2023/10/20 01:50:04;;;;;;;3.60;3.30;;;;;;;11.77;100.00;98995.22;5093982;28;20204;-65
2023/10/20 01:52:31;;;;;;;5.40;2.87;;;;;;;11.76;100.00;98990.16;5093525;28;20203;-65
2023/10/20 01:54:58;;;;;;;2.40;2.30;;;;;;;11.78;100.00;98993.50;5100377;28;20195;-65
2023/10/20 01:57:25;;;;;;;3.50;3.33;;;;;;;11.75;100.00;98986.75;5111939;28;20735;-65
2023/10/20 01:59:53;;;;;;;2.43;2.33;;;;;;;11.72;100.00;98984.31;5104441;28;20252;-65
2023/10/20 02:02:20;;;;;;;4.10;2.67;;;;;;;11.71;100.00;98984.38;5099160;28;20207;-65
2023/10/20 02:04:47;;;;;;;2.00;1.90;;;;;;;11.68;100.00;98981.91;5095682;28;20215;-65
2023/10/20 02:07:13;;;;;;;2.97;2.77;;;;;;;11.64;100.00;98977.78;5113624;28;20294;-65
2023/10/20 02:09:40;;;;;;;2.27;2.17;;;;;;;11.63;100.00;98981.25;5113417;28;20195;-65
2023/10/20 02:12:09;;;;;;;2.67;2.57;;;;;;;11.62;100.00;98977.84;5113987;28;20195;-65
2023/10/20 02:14:36;;;;;;;4.53;3.17;;;;;;;11.59;100.00;98971.13;5113587;28;20282;-65
2023/10/20 02:17:04;;;;;;;2.73;2.53;;;;;;;11.57;100.00;98967.75;5113855;28;20226;-65
2023/10/20 02:19:31;;;;;;;2.27;2.17;;;;;;;11.58;100.00;98973.75;5113854;28;20194;-65
2023/10/20 02:21:59;;;;;;;2.80;2.20;;;;;;;11.54;100.00;98972.19;5110202;27;20195;-65
2023/10/20 02:24:26;;;;;;;10.27;3.37;;;;;;;11.40;100.00;98949.66;5113276;27;20221;-65
2023/10/20 02:26:52;;;;;;;1.87;1.87;;;;;;;11.50;100.00;98965.53;5113209;27;20551;-65
2023/10/20 02:29:19;;;;;;;2.70;2.23;;;;;;;11.46;100.00;98962.25;5113777;28;20578;-65
2023/10/20 02:31:46;;;;;;;4.30;3.17;;;;;;;11.46;100.00;98964.81;5112048;28;20631;-65
2023/10/20 02:34:14;;;;;;;2.20;2.10;;;;;;;11.35;100.00;98948.16;5113367;27;20651;-65
2023/10/20 02:36:42;;;;;;;1.90;1.80;;;;;;;11.36;100.00;98963.50;5113410;28;20203;-65
2023/10/20 02:39:09;;;;;;;3.40;3.17;;;;;;;11.37;100.00;98961.78;5112872;27;20225;-65
2023/10/20 02:41:35;;;;;;;2.83;2.63;;;;;;;11.37;100.00;98959.22;5113604;28;20251;-65
2023/10/20 02:44:02;;;;;;;2.10;2.00;;;;;;;11.31;100.00;98950.00;5112793;28;20682;-65
2023/10/20 02:46:30;;;;;;;1.70;1.67;;;;;;;11.29;100.00;98943.28;5113140;28;20198;-65
2023/10/20 02:48:57;;;;;;;3.07;1.47;;;;;;;11.28;100.00;98941.59;5113017;28;20198;-65
2023/10/20 02:51:25;;;;;;;2.53;2.43;;;;;;;11.17;100.00;98931.78;5113173;28;20202;-65
2023/10/20 02:53:52;;;;;;;2.67;2.23;;;;;;;11.26;100.00;98951.94;5112850;28;20272;-65
2023/10/20 02:56:23;;;;;;;2.30;2.13;;;;;;;11.19;100.00;98944.53;5109322;27;20564;-65
2023/10/20 02:58:50;;;;;;;2.37;2.27;;;;;;;11.16;100.00;98932.69;5093403;28;20198;-65
2023/10/20 03:01:18;;;;;;;2.13;2.03;;;;;;;11.16;100.00;98924.97;5096304;28;20203;-65
2023/10/20 03:03:45;;;;;;;2.23;2.13;;;;;;;11.14;100.00;98921.66;5092391;28;20207;-65
2023/10/20 03:06:12;;;;;;;3.43;2.10;;;;;;;11.13;100.00;98926.84;5092230;28;20215;-65
2023/10/20 03:08:41;;;;;;;2.60;2.40;;;;;;;11.07;100.00;98938.19;5100694;28;20198;-65
2023/10/20 03:11:08;;;;;;;2.70;2.60;;;;;;;11.00;100.00;98944.44;5112653;28;20194;-65
2023/10/20 03:13:35;;;;;;;3.00;2.73;;;;;;;11.00;100.00;98934.19;5112584;28;20194;-65
2023/10/20 03:16:02;;;;;;;3.07;2.87;;;;;;;10.99;100.00;98937.63;5112406;28;20276;-65
2023/10/20 03:18:29;;;;;;;2.23;2.13;;;;;;;10.98;100.00;98926.56;5112483;28;20202;-65
2023/10/20 03:21:00;;;;;;;2.20;2.00;;;;;;;10.97;100.00;98934.31;5112667;28;20191;-65
2023/10/20 03:23:27;;;;;;;2.60;2.40;;;;;;;10.92;100.00;98947.28;5112198;28;20629;-65
2023/10/20 03:25:55;;;;;;;3.67;2.77;;;;;;;10.89;100.00;98944.00;5112424;28;20217;-65
2023/10/20 03:28:22;;;;;;;2.27;2.13;;;;;;;10.86;100.00;98947.53;5110732;28;20198;-65
2023/10/20 03:30:50;;;;;;;2.40;2.20;;;;;;;10.79;100.00;98935.03;5112659;28;20285;-65
2023/10/20 03:33:17;;;;;;;2.47;2.37;;;;;;;10.70;100.00;98940.47;5109427;27;20286;-65
2023/10/20 03:35:44;;;;;;;2.00;1.90;;;;;;;10.64;100.00;98935.59;5112066;28;20199;-66
2023/10/20 03:38:11;;;;;;;1.80;1.77;;;;;;;10.60;100.00;98949.44;5111962;27;20270;-65
2023/10/20 03:40:40;;;;;;;2.43;2.33;;;;;;;10.61;100.00;98954.50;5094654;27;20192;-65
2023/10/20 03:43:10;;;;;;;1.60;1.50;;;;;;;10.61;100.00;98951.09;5091127;28;20202;-65
2023/10/20 03:45:48;;;;;;;6.33;1.67;;;;;;;10.61;100.00;98956.22;5100423;28;20207;-65
2023/10/20 03:48:15;;;;;;;2.00;1.83;;;;;;;10.49;100.00;98930.16;5111466;28;20289;-65
2023/10/20 03:50:44;;;;;;;2.30;1.80;;;;;;;10.57;100.00;98945.22;5107350;27;20192;-65
2023/10/20 03:53:15;;;;;;;2.07;1.87;;;;;;;10.54;100.00;98943.63;5091957;28;20202;-65
2023/10/20 03:55:42;;;;;;;2.20;2.10;;;;;;;10.52;100.00;98949.72;5091480;28;20667;-64
2023/10/20 03:58:11;;;;;;;3.03;2.60;;;;;;;10.49;100.00;98958.34;5091640;28;20620;-65
2023/10/20 04:00:41;;;;;;;2.60;2.50;;;;;;;10.47;100.00;98956.72;5091138;28;20289;-65
2023/10/20 04:03:09;;;;;;;1.60;1.60;;;;;;;10.46;100.00;98958.47;5101834;27;20241;-65
2023/10/20 04:05:35;;;;;;;2.70;2.50;;;;;;;10.44;100.00;98959.38;5111312;28;20305;-65
2023/10/20 04:08:05;;;;;;;2.57;2.37;;;;;;;10.43;100.00;98950.06;5109693;28;20222;-65
2023/10/20 04:10:32;;;;;;;2.20;2.10;;;;;;;10.34;100.00;98952.97;5111245;28;20226;-65
2023/10/20 04:13:01;;;;;;;2.20;2.10;;;;;;;10.31;100.00;98953.88;5111537;28;20201;-65
2023/10/20 04:15:32;;;;;;;2.30;2.10;;;;;;;10.32;100.00;98957.28;5112058;27;20201;-65
2023/10/20 04:17:59;;;;;;;1.47;1.47;;;;;;;10.30;100.00;98957.34;5111292;28;20285;-65
2023/10/20 04:20:26;;;;;;;3.93;1.73;;;;;;;10.29;100.00;98958.25;5110315;28;20195;-65
2023/10/20 04:22:54;;;;;;;2.23;2.17;;;;;;;10.27;100.00;98952.34;5093456;28;20210;-65
2023/10/20 04:25:22;;;;;;;1.63;1.63;;;;;;;10.26;100.00;98950.66;5110891;28;20218;-65
2023/10/20 04:27:51;;;;;;;3.07;2.87;;;;;;;10.26;100.00;98960.91;5111089;28;20214;-64
2023/10/20 04:47:36;;;;;;;1.40;1.37;;;;;;;10.17;100.00;98953.56;5104818;27;20207;-65
2023/10/20 04:58:42;;;;;;;1.97;1.93;;;;;;;10.13;100.00;98953.69;5110985;28;20195;-65
2023/10/20 05:01:16;;;;;;;4.97;2.23;;;;;;;10.13;100.00;98961.38;5097036;28;20195;-65
2023/10/20 05:03:46;;;;;;;2.80;1.63;;;;;;;10.13;100.00;98959.63;5098933;28;20204;-65
2023/10/20 05:06:22;;;;;;;2.67;1.10;;;;;;;10.14;100.00;98953.66;5108800;28;20678;-64
2023/10/20 05:08:50;;;;;;;2.00;1.90;;;;;;;10.00;100.00;98930.22;5108092;28;20251;-65
2023/10/20 05:11:17;;;;;;;2.47;2.07;;;;;;;10.17;100.00;98957.84;5109522;28;20198;-65
2023/10/20 05:13:44;;;;;;;1.10;1.10;;;;;;;10.18;100.00;98968.00;5109268;28;20198;-65
2023/10/20 05:16:12;;;;;;;2.40;1.90;;;;;;;10.22;100.00;98977.28;5090058;28;20269;-65
2023/10/20 05:18:39;;;;;;;3.00;1.70;;;;;;;10.10;100.00;98944.38;5093244;28;20667;-65
2023/10/20 05:21:06;;;;;;;1.43;1.13;;;;;;;10.18;100.00;98962.91;5090348;28;20679;-66
2023/10/20 05:23:36;;;;;;;2.30;2.20;;;;;;;10.21;100.00;98961.97;5094199;28;20203;-65
2023/10/20 05:26:03;;;;;;;1.67;1.67;;;;;;;10.20;100.00;98971.38;5094990;28;20703;-65
2023/10/20 05:28:30;;;;;;;2.30;2.10;;;;;;;10.23;100.00;98976.38;5110230;28;20230;-65
2023/10/20 05:30:58;;;;;;;1.40;1.40;;;;;;;10.20;100.00;98973.94;5110411;28;20697;-65
2023/10/20 05:33:25;;;;;;;1.50;1.27;;;;;;;10.25;100.00;98966.06;5101863;28;20287;-66
2023/10/20 05:35:52;;;;;;;2.00;1.90;;;;;;;10.28;100.00;98969.38;5109696;28;20669;-65
2023/10/20 05:38:20;;;;;;;1.53;1.53;;;;;;;10.20;100.00;98953.44;5100655;28;20196;-65
2023/10/20 05:40:58;;;;;;;1.70;1.70;;;;;;;10.13;100.00;98928.06;5099539;28;20671;-65
2023/10/20 05:43:25;;;;;;;5.83;1.70;;;;;;;10.31;100.00;98968.41;5109748;28;20273;-65
2023/10/20 05:45:52;;;;;;;1.20;1.20;;;;;;;10.33;100.00;98961.53;5110217;28;20250;-65
2023/10/20 05:48:18;;;;;;;1.50;1.47;;;;;;;10.35;100.00;98973.38;5110454;28;20816;-65
2023/10/20 05:50:45;;;;;;;1.30;1.30;;;;;;;10.39;100.00;98959.56;5109321;28;20228;-66
2023/10/20 05:53:12;;;;;;;1.27;1.27;;;;;;;10.41;100.00;98965.47;5105782;28;20199;-66
2023/10/20 05:55:39;;;;;;;2.10;1.90;;;;;;;10.39;100.00;98961.31;5097340;28;20199;-65
2023/10/20 05:58:07;;;;;;;11.10;2.10;;;;;;;10.39;100.00;98961.31;5107615;28;20206;-66
2023/10/20 06:00:35;;;;;;;2.43;2.33;;;;;;;10.44;100.00;98960.22;5089989;28;20204;-65
2023/10/20 06:03:02;;;;;;;1.97;1.93;;;;;;;10.47;100.00;98960.13;5089728;28;20202;-65
2023/10/20 06:05:29;;;;;;;1.30;1.20;;;;;;;10.53;100.00;98965.00;5091932;28;20559;-65
2023/10/20 06:07:56;;;;;;;2.90;2.70;;;;;;;10.59;100.00;98973.38;5099547;28;20642;-66
2023/10/20 06:10:23;;;;;;;1.50;1.40;;;;;;;10.63;100.00;98975.75;5103972;27;20630;-65
2023/10/20 06:12:51;;;;;;;1.07;1.07;;;;;;;10.71;100.00;98970.34;5111197;28;20582;-65
2023/10/20 06:15:20;;;;;;;1.57;1.33;;;;;;;10.79;100.00;98976.03;5109664;28;20297;-65
2023/10/20 06:17:48;;;;;;;1.97;1.87;;;;;;;10.80;100.00;98975.13;5108363;28;20321;-66
2023/10/20 06:20:15;;;;;;;2.50;1.63;;;;;;;10.88;100.00;98985.94;5107912;28;20206;-66
2023/10/20 06:22:42;;;;;;;2.03;2.03;;;;;;;10.96;100.00;98978.78;5106858;28;20199;-66
2023/10/20 06:25:12;;;;;;;1.90;1.80;;;;;;;11.01;100.00;98977.75;5105696;27;20308;-66
2023/10/20 06:27:40;;;;;;;2.20;2.10;;;;;;;11.07;100.00;98987.75;5104422;28;20268;-66
2023/10/20 06:30:14;;;;;;;2.40;2.30;;;;;;;11.16;100.00;98994.25;5108562;28;20602;-65
2023/10/20 06:32:45;;;;;;;2.33;2.23;;;;;;;11.22;100.00;98998.28;5109576;28;20206;-65
2023/10/20 06:35:13;;;;;;;2.13;1.47;;;;;;;11.30;100.00;98993.72;5101270;28;20253;-66
2023/10/20 06:37:46;;;;;;;2.30;2.20;;;;;;;11.37;100.00;98993.38;5103980;28;20226;-66
2023/10/20 06:40:16;;;;;;;1.53;1.53;;;;;;;11.44;100.00;99007.66;5104821;28;20213;-65
2023/10/20 06:42:44;;;;;;;2.13;2.03;;;;;;;11.51;100.00;98991.13;5106895;28;20281;-65
2023/10/20 06:45:11;;;;;;;2.20;2.10;;;;;;;11.56;100.00;98986.66;5104068;28;20286;-65
2023/10/20 06:47:39;;;;;;;1.80;1.70;;;;;;;11.65;100.00;98989.72;5104374;28;20226;-65
2023/10/20 06:50:10;;;;;;;1.73;1.70;;;;;;;11.72;100.00;98997.16;5105410;27;20201;-66
2023/10/20 06:52:37;;;;;;;1.73;1.63;;;;;;;11.75;100.00;98998.75;5109439;28;20289;-65
2023/10/20 06:55:04;;;;;;;1.90;1.80;;;;;;;11.84;100.00;98991.50;5103003;28;20207;-65
2023/10/20 06:57:31;;;;;;;2.57;2.47;;;;;;;11.93;100.00;98987.72;5107621;28;20263;-65
2023/10/20 06:59:58;;;;;;;2.43;2.30;;;;;;;12.02;100.00;98988.16;5105607;28;20694;-65
2023/10/20 07:02:25;;;;;;;2.73;2.63;;;;;;;12.16;100.00;98997.00;5101055;28;20257;-65
2023/10/20 07:04:51;;;;;;;1.70;1.60;;;;;;;12.31;100.00;98994.59;5104753;28;20625;-65
2023/10/20 07:07:20;;;;;;;4.87;2.33;;;;;;;12.44;100.00;99000.88;5101655;28;20632;-65
2023/10/20 07:09:46;;;;;;;2.23;2.13;;;;;;;12.58;100.00;99011.41;5107781;28;20259;-66
2023/10/20 07:12:14;;;;;;;2.00;1.83;;;;;;;12.73;100.00;99009.88;5094430;28;20269;-66
2023/10/20 07:14:43;;;;;;;3.77;2.03;;;;;;;12.91;100.00;99003.91;5104369;28;20207;-65
2023/10/20 07:17:11;;;;;;;1.93;1.77;;;;;;;13.11;100.00;99005.59;5104702;28;20219;-65
2023/10/20 07:19:38;;;;;;;3.20;3.07;;;;;;;13.25;100.00;99000.63;5107507;28;20286;-65
2023/10/20 07:22:05;;;;;;;3.33;2.63;;;;;;;13.42;100.00;98995.50;5106535;28;20196;-65
2023/10/20 07:24:34;;;;;;;3.27;3.00;;;;;;;13.64;100.00;99009.00;5103432;28;20286;-65
2023/10/20 07:27:02;;;;;;;2.27;2.07;;;;;;;13.80;100.00;99001.34;5105521;28;20579;-64
2023/10/20 07:29:29;;;;;;;1.93;1.83;;;;;;;13.99;100.00;99003.88;5098568;27;20798;-66
2023/10/20 07:31:56;;;;;;;2.77;2.67;;;;;;;14.17;100.00;99005.50;5104505;27;20199;-63
2023/10/20 07:34:25;;;;;;;5.00;3.27;;;;;;;14.32;100.00;98994.41;5108764;27;20207;-67
2023/10/20 07:36:52;;;;;;;2.87;2.67;;;;;;;14.53;100.00;99008.81;5105688;27;20235;-65
2023/10/20 07:42:42;;;;;;;4.57;2.53;;;;;;;14.87;100.00;98996.66;5097978;27;20232;-64
2023/10/20 07:45:10;;;;;;;2.37;2.17;;;;;;;15.02;100.00;99003.63;5104070;27;20211;-64
2023/10/20 07:47:37;;;;;;;2.20;2.10;;;;;;;15.16;100.00;98995.91;5104994;28;20698;-64
2023/10/20 07:50:04;;;;;;;2.90;2.70;;;;;;;15.36;100.00;99003.41;5098719;28;20200;-66
2023/10/20 07:52:31;;;;;;;3.17;3.07;;;;;;;15.57;100.00;98994.47;5108273;27;20205;-66
2023/10/20 07:54:59;;;;;;;3.07;2.87;;;;;;;15.74;99.06;98984.00;5105281;27;20206;-66
2023/10/20 07:57:25;;;;;;;2.53;2.33;;;;;;;15.97;98.85;98976.66;5107453;28;20204;-63
2023/10/20 07:59:53;;;;;;;2.70;2.57;;;;;;;16.07;98.51;98977.78;5105958;28;20636;-64
2023/10/20 08:02:20;;;;;;;2.93;2.70;;;;;;;16.19;99.53;98972.72;5103867;28;20256;-65
2023/10/20 08:04:47;;;;;;;2.93;2.73;;;;;;;16.38;96.91;98982.78;5104029;28;20215;-64
2023/10/20 08:07:14;;;;;;;2.40;2.23;;;;;;;16.55;96.29;98974.88;5108284;27;20210;-64
2023/10/20 08:09:42;;;;;;;2.23;2.10;;;;;;;16.76;95.35;98967.56;5106489;28;20198;-65
2023/10/20 08:12:08;;;;;;;2.97;2.77;;;;;;;16.89;93.86;98967.63;5099670;28;20207;-64
2023/10/20 08:14:35;;;;;;;2.77;2.10;;;;;;;17.00;93.07;98975.53;5103603;28;20532;-64
2023/10/20 08:17:07;;;;;;;2.23;1.93;;;;;;;17.16;93.81;98963.28;5099592;27;20593;-65
2023/10/20 08:19:34;;;;;;;4.60;2.67;;;;;;;17.32;93.49;98967.38;5107056;28;20192;-64
2023/10/20 08:22:00;;;;;;;3.43;3.23;;;;;;;17.48;90.44;98967.22;5102283;28;20192;-64
2023/10/20 08:24:27;;;;;;;4.97;3.20;;;;;;;17.63;91.23;98957.66;5102843;28;20202;-66
2023/10/20 08:26:53;;;;;;;2.53;2.33;;;;;;;17.75;88.70;98962.84;5096646;28;20774;-66
2023/10/20 08:29:20;;;;;;;3.43;3.23;;;;;;;17.89;89.74;98958.50;5109832;27;20199;-66
2023/10/20 08:31:47;;;;;;;2.53;2.43;;;;;;;17.98;87.87;98960.47;5106856;28;20196;-66
2023/10/20 08:34:15;;;;;;;2.90;2.80;;;;;;;18.10;86.99;98970.03;5101880;28;20691;-66
2023/10/20 08:36:42;;;;;;;3.57;2.77;;;;;;;18.22;85.28;98969.22;5099656;28;20243;-65
2023/10/20 08:39:14;;;;;;;2.43;2.27;;;;;;;18.33;82.92;98956.31;5094443;28;20240;-66
2023/10/20 08:41:41;;;;;;;2.93;2.57;;;;;;;18.31;82.63;98955.59;5106744;28;20239;-66
2023/10/20 08:44:09;;;;;;;3.40;3.20;;;;;;;18.36;81.96;98966.50;5105547;28;20237;-66
2023/10/20 08:46:37;;;;;;;2.73;2.63;;;;;;;18.45;82.91;98970.25;5096573;28;20671;-66
2023/10/20 08:49:06;;;;;;;3.70;3.27;;;;;;;18.40;82.62;98947.19;5111903;27;20237;-66
2023/10/20 08:51:37;;;;;;;3.23;3.03;;;;;;;18.65;84.46;98961.91;5100378;27;20267;-66
2023/10/20 08:54:07;;;;;;;3.27;2.83;;;;;;;18.82;83.50;98965.00;5094362;28;20229;-65
2023/10/20 08:56:34;;;;;;;2.70;2.50;;;;;;;18.93;82.49;98977.22;5097915;28;20199;-66
2023/10/20 08:59:01;;;;;;;3.17;2.97;;;;;;;18.94;81.19;98957.25;5113754;28;20200;-66
2023/10/20 09:01:28;;;;;;;2.67;2.57;;;;;;;18.92;80.82;98969.53;5110121;28;20217;-67
2023/10/20 09:03:55;;;;;;;2.77;2.57;;;;;;;18.90;80.14;98976.63;5102605;28;20259;-66
2023/10/20 09:06:25;;;;;;;3.60;3.30;;;;;;;19.00;80.11;98972.44;5102143;28;20225;-66
2023/10/20 09:08:54;;;;;;;3.13;2.93;;;;;;;19.15;79.76;98966.13;5112406;28;20211;-65
2023/10/20 09:11:25;;;;;;;4.70;3.07;;;;;;;19.29;78.67;98958.13;5104681;28;20738;-66
2023/10/20 09:13:51;;;;;;;3.77;3.07;;;;;;;19.37;79.31;98966.22;5104874;28;20218;-67
2023/10/20 09:16:18;;;;;;;4.77;2.83;;;;;;;19.43;77.14;98960.59;5102025;28;20233;-66
2023/10/20 09:18:47;;;;;;;2.07;1.90;;;;;;;19.52;77.70;98959.09;5107859;28;20212;-66
2023/10/20 09:21:14;;;;;;;2.60;2.40;;;;;;;19.57;78.78;98957.84;5099537;28;20281;-66
2023/10/20 09:23:41;;;;;;;2.63;2.50;;;;;;;19.62;77.80;98945.31;5099738;28;20198;-65
2023/10/20 09:26:09;;;;;;;4.27;3.40;;;;;;;19.58;77.92;98943.06;5109364;28;20222;-66
2023/10/20 09:28:36;;;;;;;3.13;2.93;;;;;;;19.74;78.85;98939.19;5103763;28;20202;-65
2023/10/20 09:31:04;;;;;;;3.20;3.00;;;;;;;19.83;78.90;98938.53;5097962;28;20225;-69
2023/10/20 09:33:30;;;;;;;3.47;3.27;;;;;;;20.02;79.54;98934.50;5097824;28;20195;-66
2023/10/20 09:35:57;;;;;;;3.17;2.97;;;;;;;20.08;76.37;98939.25;5109552;28;20202;-70
2023/10/20 09:38:26;;;;;;;3.07;2.87;;;;;;;20.10;76.82;98939.94;5106217;28;20255;-68
2023/10/20 09:41:04;;;;;;;2.87;2.73;;;;;;;20.17;77.03;98934.16;5102205;28;20297;-66
2023/10/20 09:43:35;;;;;;;3.27;3.07;;;;;;;20.34;76.74;98932.91;5103603;28;20206;-65
2023/10/20 09:46:13;;;;;;;2.70;2.50;;;;;;;20.39;75.34;98939.41;5107843;28;20203;-66
2023/10/20 09:48:41;;;;;;;3.13;2.80;;;;;;;20.47;76.17;98933.63;5109644;27;20198;-66
2023/10/20 09:51:08;;;;;;;4.53;2.17;;;;;;;20.63;74.66;98935.84;5105322;27;20202;-66
2023/10/20 09:53:36;;;;;;;2.53;2.33;;;;;;;20.72;75.67;98935.94;5103693;27;20214;-66
2023/10/20 09:56:03;;;;;;;2.50;2.30;;;;;;;20.75;74.50;98922.69;5109392;27;20199;-66
2023/10/20 09:58:34;;;;;;;2.83;2.63;;;;;;;20.81;74.20;98922.19;5114299;27;20203;-66
2023/10/20 10:01:02;;;;;;;2.00;1.90;;;;;;;20.76;72.73;98919.13;5109832;27;20238;-66
2023/10/20 10:03:34;;;;;;;3.07;2.83;;;;;;;20.80;74.22;98923.16;5105473;28;20214;-66
2023/10/20 10:06:02;;;;;;;2.90;2.77;;;;;;;20.90;73.20;98921.44;5105724;27;20209;-66
2023/10/20 10:08:31;;;;;;;2.30;2.20;;;;;;;20.92;72.78;98914.34;5107663;28;20194;-66
2023/10/20 10:10:57;;;;;;;2.60;2.40;;;;;;;20.94;71.28;98909.84;5113981;27;20207;-66
2023/10/20 10:13:35;;;;;;;2.43;2.33;;;;;;;20.99;73.32;98909.47;5110727;27;20590;-66
2023/10/20 10:16:13;;;;;;;3.13;2.93;;;;;;;21.05;72.90;98908.16;5109234;28;20257;-68
2023/10/20 10:18:46;;;;;;;2.37;2.27;;;;;;;20.99;73.18;98906.03;5107854;27;20211;-67
2023/10/20 10:21:24;;;;;;;2.40;2.30;;;;;;;21.04;71.55;98901.28;5109298;27;20233;-66
2023/10/20 10:24:15;;;;;;;2.80;2.60;;;;;;;21.07;72.63;98901.03;5104200;27;20660;-66
2023/10/20 10:26:46;;;;;;;2.27;2.17;;;;;;;21.15;73.19;98899.50;5108988;27;20215;-66
2023/10/20 10:29:14;;;;;;;1.90;1.80;;;;;;;21.26;73.43;98880.38;5109488;27;20202;-66
2023/10/20 10:31:42;;;;;;;2.13;2.03;;;;;;;21.39;73.62;98887.03;5110583;28;20198;-68
2023/10/20 10:34:09;;;;;;;2.23;2.13;;;;;;;21.43;72.63;98892.84;5106705;28;20210;-66
2023/10/20 10:36:47;;;;;;;2.37;2.27;;;;;;;21.48;71.65;98880.25;5108848;28;20195;-66
2023/10/20 10:39:28;;;;;;;2.93;2.83;;;;;;;21.50;72.31;98875.75;5107528;28;20190;-66
2023/10/20 10:41:55;;;;;;;2.93;2.63;;;;;;;21.55;72.56;98883.19;5113110;28;20203;-67
2023/10/20 10:44:23;;;;;;;2.43;2.33;;;;;;;21.58;71.44;98886.38;5113056;28;20202;-65
2023/10/20 10:46:51;;;;;;;2.10;2.00;;;;;;;21.58;71.09;98875.94;5097717;28;20282;-67
2023/10/20 10:49:18;;;;;;;2.47;2.37;;;;;;;21.62;71.74;98871.25;5100172;27;20194;-66
2023/10/20 10:51:46;;;;;;;1.80;1.70;;;;;;;21.59;71.18;98856.69;5112584;28;20259;-65
2023/10/20 10:54:13;;;;;;;2.63;2.43;;;;;;;21.74;74.75;98865.03;5110464;28;20199;-66
2023/10/20 10:56:41;;;;;;;4.30;2.20;;;;;;;21.81;70.99;98848.72;5112280;28;20198;-65
2023/10/20 10:59:09;;;;;;;2.13;2.03;;;;;;;21.90;71.22;98855.81;5108778;28;20199;-66
2023/10/20 11:01:39;;;;;;;2.07;1.97;;;;;;;21.98;70.82;98858.59;5112418;28;20223;-65
2023/10/20 11:04:09;;;;;;;2.17;2.07;;;;;;;22.00;70.53;98866.31;5112824;28;20195;-66
2023/10/20 11:06:37;;;;;;;2.13;2.03;;;;;;;21.97;71.22;98843.88;5111850;28;20219;-66
2023/10/20 11:09:08;;;;;;;2.40;2.03;;;;;;;22.07;69.48;98856.16;5112411;28;20209;-65
2023/10/20 11:11:39;;;;;;;2.13;2.03;;;;;;;22.22;71.28;98847.00;5110369;28;20199;-65
2023/10/20 11:14:06;;;;;;;2.67;2.00;;;;;;;22.25;69.50;98850.19;5097057;28;20205;-65
2023/10/20 11:16:35;;;;;;;2.13;2.00;;;;;;;22.25;69.55;98847.56;5111747;28;20218;-64
2023/10/20 11:19:03;;;;;;;1.93;1.83;;;;;;;22.28;70.04;98854.31;5111084;28;20277;-64
2023/10/20 11:21:31;;;;;;;2.47;2.37;;;;;;;22.34;69.83;98848.53;5111925;28;20252;-64
2023/10/20 11:23:58;;;;;;;2.17;2.07;;;;;;;22.41;67.85;98844.44;5111907;27;20198;-63
2023/10/20 11:26:25;;;;;;;2.00;1.90;;;;;;;22.46;68.41;98837.00;5112429;28;20195;-64
2023/10/20 11:28:52;;;;;;;2.80;2.60;;;;;;;22.56;68.05;98834.41;5110798;28;20290;-64
2023/10/20 11:31:20;;;;;;;2.10;2.00;;;;;;;22.63;69.21;98831.13;5111628;28;20206;-64
2023/10/20 11:33:46;;;;;;;2.20;2.10;;;;;;;22.65;68.31;98831.81;5111454;28;20825;-64
2023/10/20 11:36:14;;;;;;;2.30;2.20;;;;;;;22.69;68.20;98822.78;5111919;28;20195;-64
2023/10/20 11:38:47;;;;;;;3.43;3.13;;;;;;;22.61;66.24;98824.41;5111617;28;20191;-68
2023/10/20 11:41:14;;;;;;;4.00;3.03;;;;;;;22.68;68.05;98826.34;5110931;28;20230;-65
2023/10/20 11:43:41;;;;;;;2.87;2.67;;;;;;;22.71;68.43;98826.09;5111262;28;20203;-65
2023/10/20 11:46:11;;;;;;;2.83;2.63;;;;;;;22.78;66.99;98811.50;5098100;27;20252;-65
2023/10/20 11:48:38;;;;;;;2.47;2.27;;;;;;;22.87;67.34;98815.94;5104960;27;20214;-65
2023/10/20 11:51:04;;;;;;;2.20;2.10;;;;;;;22.83;65.77;98819.78;5111091;28;20252;-66
2023/10/20 11:53:33;;;;;;;1.97;1.87;;;;;;;22.87;66.19;98817.72;5110624;27;20281;-65
2023/10/20 11:55:59;;;;;;;2.30;2.03;;;;;;;22.88;64.79;98814.13;5111158;28;20241;-65
2023/10/20 11:58:26;;;;;;;1.90;1.80;;;;;;;23.03;65.52;98807.53;5110820;27;20199;-65
2023/10/20 12:00:53;;;;;;;2.67;2.20;;;;;;;23.07;65.88;98815.94;5110933;28;20633;-65
2023/10/20 12:03:20;;;;;;;1.67;1.57;;;;;;;23.06;65.75;98809.88;5102425;28;20260;-63